Time;durP1;ratioP1;P1;durP2;ratioP2;P2;SDS_P1;SDS_P2;PMS_P1;PMS_P2;Temp;Humidity;BMP_temperature;BMP_pressure;BME280_temperature;BME280_humidity;BME280_pressure;Samples;Min_cycle;Max_cycle;Signal;HPM_P1;HPM_P2
2022/10/07 00:00:56;;;;;;;6.28;1.80;;;;;;;;;;5070272;28;20052;-68
2022/10/07 00:03:24;;;;;;;8.43;2.30;;;;;;;;;;5052971;28;20110;-68
2022/10/07 00:06:09;;;;;;;7.13;2.65;;;;;;;;;;5054165;28;20043;-68
2022/10/07 00:08:37;;;;;;;8.23;1.80;;;;;;;;;;5053943;28;20123;-68
2022/10/07 00:11:07;;;;;;;5.60;1.83;;;;;;;;;;5054481;28;20605;-68
2022/10/07 00:13:35;;;;;;;7.47;2.38;;;;;;;;;;5054340;28;20652;-68
2022/10/07 00:16:09;;;;;;;3.90;2.38;;;;;;;;;;5052020;28;20511;-68
2022/10/07 00:18:36;;;;;;;5.60;2.65;;;;;;;;;;5053113;28;20032;-68
2022/10/07 00:21:03;;;;;;;4.25;2.80;;;;;;;;;;5062354;28;20044;-68
2022/10/07 00:23:29;;;;;;;4.97;1.67;;;;;;;;;;5055956;28;20052;-68
2022/10/07 00:25:59;;;;;;;7.03;2.42;;;;;;;;;;5067675;28;20059;-68
2022/10/07 00:28:25;;;;;;;5.75;2.78;;;;;;;;;;5053788;28;20040;-68
2022/10/07 00:31:01;;;;;;;5.32;2.45;;;;;;;;;;5070513;28;20246;-68
2022/10/07 00:33:30;;;;;;;6.15;2.30;;;;;;;;;;5055075;28;20046;-67
2022/10/07 00:35:56;;;;;;;4.20;3.00;;;;;;;;;;5062595;28;20048;-67
2022/10/07 00:38:22;;;;;;;10.23;2.83;;;;;;;;;;5056743;28;20041;-67
2022/10/07 00:40:48;;;;;;;5.70;2.58;;;;;;;;;;5070850;28;20395;-67
2022/10/07 00:43:20;;;;;;;7.05;2.53;;;;;;;;;;5056185;28;20049;-67
2022/10/07 00:45:46;;;;;;;5.90;1.90;;;;;;;;;;5056061;28;20061;-67
2022/10/07 00:48:15;;;;;;;6.28;2.55;;;;;;;;;;5055471;28;20095;-67
2022/10/07 00:50:41;;;;;;;5.18;2.67;;;;;;;;;;5053853;28;20574;-67
2022/10/07 00:53:09;;;;;;;5.03;2.55;;;;;;;;;;5055721;28;20515;-67
2022/10/07 00:55:35;;;;;;;10.10;3.42;;;;;;;;;;5069847;28;20064;-67
2022/10/07 00:58:08;;;;;;;5.57;2.10;;;;;;;;;;5070933;28;20515;-67
2022/10/07 01:00:34;;;;;;;6.85;2.25;;;;;;;;;;5056063;28;20041;-67
2022/10/07 01:03:00;;;;;;;4.18;2.20;;;;;;;;;;5055870;28;20045;-67
2022/10/07 01:05:26;;;;;;;6.57;2.15;;;;;;;;;;5071526;28;20095;-67
2022/10/07 01:07:53;;;;;;;6.63;3.03;;;;;;;;;;5055640;28;20052;-67
2022/10/07 01:10:20;;;;;;;7.38;3.30;;;;;;;;;;5069645;28;20037;-67
2022/10/07 01:12:56;;;;;;;10.85;2.58;;;;;;;;;;5051320;28;20064;-67
2022/10/07 01:15:34;;;;;;;4.88;2.15;;;;;;;;;;5052033;28;20477;-67
2022/10/07 01:18:16;;;;;;;9.55;3.10;;;;;;;;;;5051594;28;20083;-67
2022/10/07 01:20:46;;;;;;;5.50;2.35;;;;;;;;;;5052938;28;20045;-67
2022/10/07 01:23:15;;;;;;;10.23;2.72;;;;;;;;;;5072957;28;21212;-67
2022/10/07 01:25:57;;;;;;;8.65;4.43;;;;;;;;;;5072454;28;20040;-68
2022/10/07 01:28:26;;;;;;;11.00;3.05;;;;;;;;;;5073625;28;20075;-68
2022/10/07 01:30:54;;;;;;;6.38;2.92;;;;;;;;;;5066179;28;20045;-67
2022/10/07 01:33:26;;;;;;;4.60;2.03;;;;;;;;;;5057874;28;20432;-67
2022/10/07 01:35:54;;;;;;;19.92;3.80;;;;;;;;;;5074034;28;20133;-67
2022/10/07 01:38:27;;;;;;;5.68;2.50;;;;;;;;;;5071579;28;20063;-67
2022/10/07 01:41:00;;;;;;;7.13;3.13;;;;;;;;;;5070012;28;20051;-68
2022/10/07 01:43:26;;;;;;;7.90;3.03;;;;;;;;;;5053798;28;20068;-67
2022/10/07 01:45:54;;;;;;;5.07;2.47;;;;;;;;;;5071732;28;20033;-67
2022/10/07 01:48:20;;;;;;;8.73;3.47;;;;;;;;;;5063894;28;20046;-67
2022/10/07 01:50:47;;;;;;;9.38;3.30;;;;;;;;;;5054062;28;20523;-67
2022/10/07 01:53:14;;;;;;;9.32;3.45;;;;;;;;;;5054051;28;20095;-68
2022/10/07 01:55:46;;;;;;;5.47;3.35;;;;;;;;;;5052985;28;20114;-68
2022/10/07 01:58:22;;;;;;;6.68;2.30;;;;;;;;;;5056112;28;20600;-67
2022/10/07 02:00:53;;;;;;;5.78;2.92;;;;;;;;;;5054332;28;20076;-67
2022/10/07 02:03:38;;;;;;;6.18;2.50;;;;;;;;;;5055805;28;20045;-68
2022/10/07 02:06:13;;;;;;;6.38;2.55;;;;;;;;;;5054628;28;20041;-67
2022/10/07 02:08:42;;;;;;;7.22;2.63;;;;;;;;;;5061827;28;20037;-68
2022/10/07 02:11:18;;;;;;;4.45;2.85;;;;;;;;;;5052341;28;20601;-68
2022/10/07 02:13:54;;;;;;;4.00;2.45;;;;;;;;;;5070765;28;20132;-67
2022/10/07 02:16:34;;;;;;;15.02;3.67;;;;;;;;;;5072501;28;20037;-67
2022/10/07 02:19:02;;;;;;;5.45;2.35;;;;;;;;;;5054943;28;20725;-67
2022/10/07 02:21:30;;;;;;;6.15;2.60;;;;;;;;;;5054124;28;20045;-68
2022/10/07 02:23:57;;;;;;;8.52;3.00;;;;;;;;;;5058806;28;20140;-67
2022/10/07 02:26:25;;;;;;;4.53;2.35;;;;;;;;;;5055855;28;20136;-67
2022/10/07 02:28:52;;;;;;;7.53;3.30;;;;;;;;;;5070612;28;20041;-67
2022/10/07 02:31:22;;;;;;;5.40;2.85;;;;;;;;;;5053754;28;20558;-67
2022/10/07 02:33:50;;;;;;;7.18;2.60;;;;;;;;;;5053422;28;20666;-67
2022/10/07 02:36:21;;;;;;;6.63;3.30;;;;;;;;;;5054185;28;20041;-67
2022/10/07 02:38:47;;;;;;;4.88;2.33;;;;;;;;;;5053404;28;20104;-67
2022/10/07 02:41:13;;;;;;;7.03;3.30;;;;;;;;;;5068263;28;20045;-67
2022/10/07 02:43:43;;;;;;;5.78;2.85;;;;;;;;;;5061882;28;20531;-67
2022/10/07 02:46:12;;;;;;;5.10;2.28;;;;;;;;;;5053055;28;20596;-67
2022/10/07 02:48:40;;;;;;;5.53;2.47;;;;;;;;;;5055369;28;21235;-67
2022/10/07 02:51:08;;;;;;;6.18;2.30;;;;;;;;;;5060909;28;20112;-68
2022/10/07 02:53:36;;;;;;;5.07;2.55;;;;;;;;;;5053885;28;20045;-68
2022/10/07 02:56:04;;;;;;;7.22;3.08;;;;;;;;;;5054764;28;20816;-68
2022/10/07 02:58:30;;;;;;;11.00;2.90;;;;;;;;;;5054670;28;20033;-67
2022/10/07 03:00:58;;;;;;;6.93;3.00;;;;;;;;;;5070485;28;20045;-67
2022/10/07 03:03:25;;;;;;;7.25;3.17;;;;;;;;;;5055942;28;20614;-67
2022/10/07 03:05:51;;;;;;;8.20;3.17;;;;;;;;;;5054294;28;20041;-68
2022/10/07 03:08:20;;;;;;;5.47;2.40;;;;;;;;;;5071803;28;20076;-67
2022/10/07 03:10:46;;;;;;;7.00;3.63;;;;;;;;;;5057815;28;20041;-68
2022/10/07 03:13:14;;;;;;;7.97;3.25;;;;;;;;;;5056414;28;20176;-68
2022/10/07 03:15:41;;;;;;;3.63;2.90;;;;;;;;;;5071413;28;20067;-69
2022/10/07 03:18:24;;;;;;;6.95;2.35;;;;;;;;;;5055854;28;20041;-68
2022/10/07 03:20:52;;;;;;;6.43;2.50;;;;;;;;;;5072125;28;20988;-69
2022/10/07 03:23:18;;;;;;;4.72;2.78;;;;;;;;;;5072038;28;20048;-68
2022/10/07 03:25:48;;;;;;;4.85;2.40;;;;;;;;;;5056262;28;20102;-68
2022/10/07 03:28:14;;;;;;;4.63;2.50;;;;;;;;;;5069510;28;20051;-68
2022/10/07 03:30:40;;;;;;;4.97;2.70;;;;;;;;;;5054366;28;20044;-68
2022/10/07 03:33:07;;;;;;;5.57;2.05;;;;;;;;;;5054619;28;20438;-68
2022/10/07 03:35:33;;;;;;;8.00;2.83;;;;;;;;;;5054066;28;20037;-68
2022/10/07 03:37:59;;;;;;;6.53;4.03;;;;;;;;;;5070231;28;20056;-68
2022/10/07 03:40:26;;;;;;;7.53;2.70;;;;;;;;;;5057551;28;20052;-68
2022/10/07 03:42:52;;;;;;;6.28;2.50;;;;;;;;;;5072570;28;20037;-68
2022/10/07 03:45:19;;;;;;;4.57;2.67;;;;;;;;;;5053060;28;20044;-68
2022/10/07 03:47:45;;;;;;;7.82;1.90;;;;;;;;;;5069933;28;20094;-69
2022/10/07 03:50:11;;;;;;;7.13;3.58;;;;;;;;;;5071632;28;20047;-68
2022/10/07 03:52:38;;;;;;;5.53;2.00;;;;;;;;;;5055787;28;20040;-68
2022/10/07 03:55:04;;;;;;;4.40;2.45;;;;;;;;;;5072285;28;20982;-68
2022/10/07 03:57:48;;;;;;;5.53;3.00;;;;;;;;;;5056913;28;20033;-68
2022/10/07 04:00:16;;;;;;;4.28;2.22;;;;;;;;;;5072783;28;20068;-68
2022/10/07 04:02:43;;;;;;;5.68;2.38;;;;;;;;;;5071560;28;21410;-68
2022/10/07 04:05:09;;;;;;;10.38;2.80;;;;;;;;;;5056532;28;20051;-68
2022/10/07 04:07:35;;;;;;;5.68;2.20;;;;;;;;;;5056390;28;20121;-68
2022/10/07 04:10:01;;;;;;;8.32;2.72;;;;;;;;;;5056599;28;20047;-68
2022/10/07 04:12:32;;;;;;;6.13;1.95;;;;;;;;;;5072349;28;20045;-68
2022/10/07 04:15:00;;;;;;;6.30;2.30;;;;;;;;;;5070691;28;20033;-68
2022/10/07 04:17:26;;;;;;;3.55;2.10;;;;;;;;;;5056489;28;20051;-68
2022/10/07 04:19:53;;;;;;;5.15;2.00;;;;;;;;;;5070842;28;20068;-68
2022/10/07 04:22:19;;;;;;;16.40;4.20;;;;;;;;;;5070547;28;20068;-67
2022/10/07 04:25:32;;;;;;;8.80;2.83;;;;;;;;;;5054812;28;20057;-67
2022/10/07 04:27:32;;;;;;;5.72;2.70;;;;;;;;;;5055954;28;20056;-68
2022/10/07 04:29:58;;;;;;;6.30;2.63;;;;;;;;;;5055695;28;21105;-68
2022/10/07 04:32:24;;;;;;;13.32;3.70;;;;;;;;;;5054741;28;20148;-68
2022/10/07 04:34:50;;;;;;;9.10;2.67;;;;;;;;;;5055046;28;20135;-68
2022/10/07 04:37:16;;;;;;;7.30;2.72;;;;;;;;;;5056653;28;20069;-68
2022/10/07 04:39:42;;;;;;;5.45;2.53;;;;;;;;;;5071056;28;20049;-68
2022/10/07 04:43:17;;;;;;;7.40;2.85;;;;;;;;;;5055457;28;20154;-68
2022/10/07 04:44:54;;;;;;;7.22;2.95;;;;;;;;;;5055396;28;20049;-68
2022/10/07 04:47:20;;;;;;;11.38;2.78;;;;;;;;;;5068378;28;20494;-68
2022/10/07 04:49:47;;;;;;;5.35;2.85;;;;;;;;;;5053167;28;20033;-68
2022/10/07 04:52:13;;;;;;;7.80;2.35;;;;;;;;;;5065136;28;20049;-68
2022/10/07 04:54:40;;;;;;;8.85;2.70;;;;;;;;;;5064433;28;20060;-69
2022/10/07 04:57:12;;;;;;;9.40;2.67;;;;;;;;;;5050486;28;20041;-74
2022/10/07 04:59:38;;;;;;;8.18;3.15;;;;;;;;;;5051903;28;20041;-70
2022/10/07 05:02:11;;;;;;;10.10;3.22;;;;;;;;;;5068626;28;20124;-71
2022/10/07 05:04:37;;;;;;;10.20;3.08;;;;;;;;;;5052634;28;20048;-67
2022/10/07 05:07:03;;;;;;;12.07;3.95;;;;;;;;;;5070736;28;20092;-69
2022/10/07 05:09:32;;;;;;;8.27;3.45;;;;;;;;;;5067747;28;20055;-75
2022/10/07 05:11:58;;;;;;;10.68;3.08;;;;;;;;;;5053104;28;20043;-67
2022/10/07 05:14:24;;;;;;;8.95;2.97;;;;;;;;;;5067104;28;20107;-67
2022/10/07 05:16:51;;;;;;;7.03;3.40;;;;;;;;;;5056930;28;20065;-67
2022/10/07 05:19:18;;;;;;;6.82;2.92;;;;;;;;;;5072900;28;20059;-67
2022/10/07 05:21:44;;;;;;;5.72;2.88;;;;;;;;;;5055452;28;20087;-68
2022/10/07 05:24:10;;;;;;;9.27;3.17;;;;;;;;;;5068698;28;20549;-68
2022/10/07 05:26:36;;;;;;;9.30;3.33;;;;;;;;;;5052970;28;20049;-67
2022/10/07 05:29:03;;;;;;;8.23;4.72;;;;;;;;;;5054870;28;20115;-67
2022/10/07 05:31:29;;;;;;;7.80;3.78;;;;;;;;;;5069072;28;20056;-68
2022/10/07 05:33:55;;;;;;;12.10;3.67;;;;;;;;;;5070334;28;20044;-68
2022/10/07 05:36:21;;;;;;;11.93;4.65;;;;;;;;;;5063406;28;20056;-68
2022/10/07 05:38:47;;;;;;;10.50;4.97;;;;;;;;;;5071377;28;20041;-71
2022/10/07 05:41:13;;;;;;;11.50;5.85;;;;;;;;;;5055723;28;20049;-68
2022/10/07 05:43:46;;;;;;;8.38;4.43;;;;;;;;;;5056237;28;20045;-68
2022/10/07 05:46:13;;;;;;;8.02;4.20;;;;;;;;;;5071466;28;20061;-68
2022/10/07 05:48:39;;;;;;;9.68;3.92;;;;;;;;;;5060635;28;20049;-68
2022/10/07 05:51:06;;;;;;;10.93;3.97;;;;;;;;;;5072004;28;20037;-68
2022/10/07 05:53:32;;;;;;;7.07;3.45;;;;;;;;;;5062347;28;20080;-68
2022/10/07 05:55:58;;;;;;;12.35;3.88;;;;;;;;;;5055286;28;20046;-68
2022/10/07 05:58:25;;;;;;;11.15;4.25;;;;;;;;;;5051860;28;20541;-72
2022/10/07 06:00:59;;;;;;;16.48;5.55;;;;;;;;;;5066692;28;20053;-75
2022/10/07 06:03:25;;;;;;;11.43;4.72;;;;;;;;;;5054348;28;20084;-67
2022/10/07 06:05:52;;;;;;;8.18;3.58;;;;;;;;;;5066061;28;20056;-68
2022/10/07 06:08:19;;;;;;;9.60;4.72;;;;;;;;;;5054635;28;20045;-69
2022/10/07 06:13:31;;;;;;;7.10;2.88;;;;;;;;;;5055831;28;20471;-67
2022/10/07 06:16:04;;;;;;;8.75;3.15;;;;;;;;;;5071560;28;20199;-67
2022/10/07 06:18:31;;;;;;;10.65;4.15;;;;;;;;;;5054156;28;20535;-68
2022/10/07 06:20:58;;;;;;;9.77;3.53;;;;;;;;;;5071291;28;20037;-67
2022/10/07 06:23:28;;;;;;;9.30;4.28;;;;;;;;;;5050249;28;20091;-70
2022/10/07 06:26:04;;;;;;;8.93;4.03;;;;;;;;;;5053708;28;20099;-68
2022/10/07 06:28:31;;;;;;;7.32;3.70;;;;;;;;;;5055519;28;20045;-68
2022/10/07 06:30:58;;;;;;;10.38;4.22;;;;;;;;;;5057462;28;20041;-68
2022/10/07 06:33:24;;;;;;;9.40;3.58;;;;;;;;;;5050045;28;20049;-67
2022/10/07 06:35:50;;;;;;;16.35;4.75;;;;;;;;;;5054351;28;20840;-68
2022/10/07 06:38:16;;;;;;;10.35;4.50;;;;;;;;;;5071507;28;20052;-67
2022/10/07 06:40:42;;;;;;;13.45;4.40;;;;;;;;;;5053107;28;20199;-67
2022/10/07 06:43:08;;;;;;;13.40;5.68;;;;;;;;;;5053502;28;20165;-67
2022/10/07 06:45:34;;;;;;;9.90;6.00;;;;;;;;;;5053762;28;20148;-67
2022/10/07 06:48:00;;;;;;;10.45;6.25;;;;;;;;;;5069532;28;20048;-67
2022/10/07 06:50:27;;;;;;;10.15;5.80;;;;;;;;;;5071054;28;20072;-68
2022/10/07 06:52:53;;;;;;;11.77;5.80;;;;;;;;;;5071580;28;20150;-67
2022/10/07 06:55:19;;;;;;;16.05;5.50;;;;;;;;;;5072215;28;20049;-67
2022/10/07 06:57:45;;;;;;;16.85;7.72;;;;;;;;;;5056653;28;20055;-67
2022/10/07 07:00:13;;;;;;;15.93;5.97;;;;;;;;;;5055649;28;20045;-68
2022/10/07 07:02:39;;;;;;;10.32;5.28;;;;;;;;;;5072826;28;20033;-67
2022/10/07 07:05:07;;;;;;;17.08;5.95;;;;;;;;;;5073326;28;20408;-67
2022/10/07 07:07:33;;;;;;;11.93;4.78;;;;;;;;;;5072811;28;20286;-67
2022/10/07 07:09:59;;;;;;;18.58;5.97;;;;;;;;;;5073267;28;20033;-68
2022/10/07 07:12:25;;;;;;;10.18;4.00;;;;;;;;;;5072735;28;20045;-67
2022/10/07 07:14:51;;;;;;;14.65;4.00;;;;;;;;;;5073758;28;20514;-67
2022/10/07 07:17:17;;;;;;;18.65;4.40;;;;;;;;;;5073024;28;20041;-67
2022/10/07 07:19:44;;;;;;;7.78;4.38;;;;;;;;;;5054865;28;20086;-67
2022/10/07 07:22:10;;;;;;;10.48;4.80;;;;;;;;;;5072800;28;20034;-67
2022/10/07 07:24:37;;;;;;;11.05;4.38;;;;;;;;;;5071904;28;20483;-67
2022/10/07 07:27:03;;;;;;;12.20;4.25;;;;;;;;;;5072236;28;20057;-67
2022/10/07 07:29:29;;;;;;;20.08;5.72;;;;;;;;;;5050863;28;20041;-68
2022/10/07 07:31:57;;;;;;;33.05;7.07;;;;;;;;;;5056512;28;20051;-67
2022/10/07 07:34:23;;;;;;;39.15;8.20;;;;;;;;;;5056298;28;20040;-67
2022/10/07 07:36:51;;;;;;;58.22;11.10;;;;;;;;;;5073984;28;20588;-67
2022/10/07 07:39:17;;;;;;;30.63;7.95;;;;;;;;;;5057344;28;20040;-67
2022/10/07 07:41:49;;;;;;;26.45;6.72;;;;;;;;;;5057733;28;20044;-67
2022/10/07 07:44:16;;;;;;;18.70;4.95;;;;;;;;;;5073324;28;20037;-67
2022/10/07 07:46:43;;;;;;;16.95;3.83;;;;;;;;;;5056277;28;20049;-67
2022/10/07 07:49:10;;;;;;;11.30;4.20;;;;;;;;;;5057992;28;20044;-67
2022/10/07 07:51:37;;;;;;;16.58;6.10;;;;;;;;;;5072055;28;20037;-67
2022/10/07 07:54:03;;;;;;;8.95;4.93;;;;;;;;;;5057509;28;20349;-67
2022/10/07 07:56:33;;;;;;;16.02;5.45;;;;;;;;;;5056933;28;20075;-67
2022/10/07 07:58:59;;;;;;;20.77;5.25;;;;;;;;;;5073082;28;20075;-67
2022/10/07 08:01:27;;;;;;;14.27;6.07;;;;;;;;;;5072958;28;20637;-67
2022/10/07 08:03:53;;;;;;;21.02;7.10;;;;;;;;;;5071811;28;20064;-67
2022/10/07 08:06:20;;;;;;;38.45;5.65;;;;;;;;;;5072418;28;20083;-67
2022/10/07 08:08:47;;;;;;;15.88;5.90;;;;;;;;;;5057307;28;20040;-67
2022/10/07 08:11:14;;;;;;;19.60;4.90;;;;;;;;;;5057480;28;20049;-67
2022/10/07 08:13:41;;;;;;;19.95;5.50;;;;;;;;;;5056244;28;20045;-67
2022/10/07 08:16:12;;;;;;;24.65;5.95;;;;;;;;;;5057942;28;20059;-67
2022/10/07 08:18:38;;;;;;;23.30;6.95;;;;;;;;;;5072862;28;20164;-67
2022/10/07 08:21:06;;;;;;;19.27;5.75;;;;;;;;;;5073229;28;20045;-67
2022/10/07 08:23:32;;;;;;;20.48;6.97;;;;;;;;;;5070669;28;20041;-67
2022/10/07 08:25:59;;;;;;;15.68;5.65;;;;;;;;;;5070838;28;20053;-67
2022/10/07 08:28:26;;;;;;;23.05;5.32;;;;;;;;;;5055793;28;20056;-67
2022/10/07 08:30:52;;;;;;;19.95;6.97;;;;;;;;;;5071364;28;20079;-67
2022/10/07 08:33:19;;;;;;;15.73;5.32;;;;;;;;;;5071418;28;20522;-67
2022/10/07 08:35:51;;;;;;;17.67;6.72;;;;;;;;;;5057374;28;20364;-67
2022/10/07 08:38:17;;;;;;;;;;;;;;;;;;5056108;28;20286;-67
2022/10/07 08:40:49;;;;;;;17.98;5.60;;;;;;;;;;5054568;28;19920;-67
2022/10/07 08:43:18;;;;;;;17.35;5.28;;;;;;;;;;5071413;28;21254;-67
2022/10/07 08:45:44;;;;;;;17.58;4.65;;;;;;;;;;5064105;28;20128;-67
2022/10/07 08:48:15;;;;;;;15.55;5.22;;;;;;;;;;5068803;28;20044;-67
2022/10/07 08:50:46;;;;;;;24.85;5.47;;;;;;;;;;5055931;28;20467;-68
2022/10/07 08:53:19;;;;;;;12.00;4.03;;;;;;;;;;5071556;28;20107;-67
2022/10/07 08:55:49;;;;;;;8.38;2.78;;;;;;;;;;5053814;28;20049;-68
2022/10/07 08:58:30;;;;;;;12.85;3.22;;;;;;;;;;5056397;28;20041;-68
2022/10/07 09:01:00;;;;;;;10.02;2.13;;;;;;;;;;5072798;28;20072;-68
2022/10/07 09:03:26;;;;;;;7.57;3.42;;;;;;;;;;5071332;28;20045;-67
2022/10/07 09:05:54;;;;;;;6.72;2.65;;;;;;;;;;5072077;28;20053;-68
2022/10/07 09:08:27;;;;;;;7.03;2.40;;;;;;;;;;5070774;28;20045;-67
2022/10/07 09:10:54;;;;;;;7.97;2.85;;;;;;;;;;5068679;28;20048;-68
2022/10/07 09:13:20;;;;;;;14.38;2.22;;;;;;;;;;5070011;28;20045;-69
2022/10/07 09:15:52;;;;;;;8.40;2.00;;;;;;;;;;5054823;28;20069;-68
2022/10/07 09:18:34;;;;;;;7.55;2.85;;;;;;;;;;5053866;28;20052;-68
2022/10/07 09:21:03;;;;;;;7.72;2.85;;;;;;;;;;5054899;28;20045;-68
2022/10/07 09:23:30;;;;;;;8.93;2.42;;;;;;;;;;5073731;28;20079;-68
2022/10/07 09:25:56;;;;;;;12.00;2.22;;;;;;;;;;5069248;28;20080;-68
2022/10/07 09:28:29;;;;;;;8.40;3.50;;;;;;;;;;5071257;28;20387;-68
2022/10/07 09:30:56;;;;;;;6.18;1.95;;;;;;;;;;5056821;28;20052;-68
2022/10/07 09:33:23;;;;;;;11.43;2.83;;;;;;;;;;5072002;28;20538;-68
2022/10/07 09:36:08;;;;;;;9.48;1.88;;;;;;;;;;5071911;28;20099;-68
2022/10/07 09:38:36;;;;;;;6.07;2.72;;;;;;;;;;5070971;28;20041;-68
2022/10/07 09:41:14;;;;;;;5.53;1.55;;;;;;;;;;5056258;28;20088;-68
2022/10/07 09:43:41;;;;;;;6.82;1.88;;;;;;;;;;5055610;28;20045;-68
2022/10/07 09:46:23;;;;;;;12.55;2.70;;;;;;;;;;5058521;28;20052;-68
2022/10/07 09:48:51;;;;;;;7.13;1.83;;;;;;;;;;5060596;28;20152;-68
2022/10/07 09:51:25;;;;;;;7.00;2.47;;;;;;;;;;5073556;28;20518;-68
2022/10/07 09:53:58;;;;;;;9.15;3.00;;;;;;;;;;5075157;28;20523;-68
2022/10/07 09:56:32;;;;;;;7.38;2.85;;;;;;;;;;5073177;28;20049;-68
2022/10/07 09:59:17;;;;;;;6.97;1.80;;;;;;;;;;5073257;28;20662;-67
2022/10/07 10:02:19;;;;;;;6.97;2.85;;;;;;;;;;5059108;28;20179;-68
2022/10/07 10:04:52;;;;;;;7.25;2.85;;;;;;;;;;5034849;28;20077;-71
2022/10/07 10:07:23;;;;;;;11.98;3.60;;;;;;;;;;5050676;28;20057;-76
2022/10/07 10:09:50;;;;;;;7.78;2.90;;;;;;;;;;5075573;28;20510;-68
2022/10/07 10:12:17;;;;;;;6.45;1.90;;;;;;;;;;5058448;28;20052;-68
2022/10/07 10:14:54;;;;;;;8.48;2.28;;;;;;;;;;5056499;28;20048;-68
2022/10/07 10:17:35;;;;;;;8.20;1.85;;;;;;;;;;5071392;28;20161;-68
2022/10/07 10:20:20;;;;;;;12.43;3.70;;;;;;;;;;5073444;28;20040;-68
2022/10/07 10:22:46;;;;;;;10.20;3.15;;;;;;;;;;5074457;28;20593;-68
2022/10/07 10:28:06;;;;;;;8.65;3.58;;;;;;;;;;5058867;28;20057;-68
2022/10/07 10:30:34;;;;;;;9.57;2.80;;;;;;;;;;5058625;28;20907;-68
2022/10/07 10:33:02;;;;;;;8.15;2.75;;;;;;;;;;5075117;28;20037;-68
2022/10/07 10:35:30;;;;;;;11.68;3.70;;;;;;;;;;5073634;28;20047;-67
2022/10/07 10:38:09;;;;;;;8.63;2.90;;;;;;;;;;5059059;28;20076;-68
2022/10/07 10:40:39;;;;;;;12.40;2.88;;;;;;;;;;5059030;28;20041;-68
2022/10/07 10:43:09;;;;;;;8.98;4.05;;;;;;;;;;5056808;28;20029;-68
2022/10/07 10:45:35;;;;;;;7.63;1.63;;;;;;;;;;5070475;28;20053;-68
2022/10/07 10:48:01;;;;;;;5.60;1.70;;;;;;;;;;5056283;28;20087;-70
2022/10/07 10:50:50;;;;;;;8.60;2.25;;;;;;;;;;5051191;28;20041;-68
2022/10/07 10:53:16;;;;;;;9.45;3.70;;;;;;;;;;5052686;28;20037;-68
2022/10/07 10:56:02;;;;;;;10.05;3.60;;;;;;;;;;5063775;28;20048;-68
2022/10/07 10:58:31;;;;;;;12.02;3.00;;;;;;;;;;5060434;28;20064;-68
2022/10/07 11:01:16;;;;;;;8.02;2.10;;;;;;;;;;5058703;28;20068;-68
2022/10/07 11:03:46;;;;;;;9.70;2.08;;;;;;;;;;5058112;28;20052;-68
2022/10/07 11:06:15;;;;;;;8.48;1.90;;;;;;;;;;5058025;28;20118;-68
2022/10/07 11:08:42;;;;;;;10.63;1.80;;;;;;;;;;5057998;28;20045;-68
2022/10/07 11:11:18;;;;;;;9.73;2.85;;;;;;;;;;5071470;28;20471;-68
2022/10/07 11:13:47;;;;;;;7.57;2.38;;;;;;;;;;5056392;28;20158;-69
2022/10/07 11:16:29;;;;;;;8.93;1.88;;;;;;;;;;5058248;28;20037;-69
2022/10/07 11:18:59;;;;;;;5.45;1.27;;;;;;;;;;5072804;28;20120;-68
2022/10/07 11:21:25;;;;;;;6.95;2.50;;;;;;;;;;5058265;28;20044;-68
2022/10/07 11:24:11;;;;;;;4.85;2.53;;;;;;;;;;5056149;28;20045;-68
2022/10/07 11:26:41;;;;;;;9.73;2.53;;;;;;;;;;5073667;28;20052;-68
2022/10/07 11:29:13;;;;;;;9.32;1.85;;;;;;;;;;5072893;28;20880;-68
2022/10/07 11:31:39;;;;;;;;;;;;;;;;;;5058773;28;20052;-68
2022/10/07 11:34:38;;;;;;;8.50;2.20;;;;;;;;;;5050867;28;19928;-68
2022/10/07 11:37:07;;;;;;;4.55;1.50;;;;;;;;;;5030762;28;20454;-68
2022/10/07 11:39:36;;;;;;;6.28;2.10;;;;;;;;;;5057145;28;20049;-68
2022/10/07 11:42:07;;;;;;;6.38;2.60;;;;;;;;;;5065630;28;20053;-68
2022/10/07 11:44:40;;;;;;;7.68;1.50;;;;;;;;;;5072456;28;20069;-68
2022/10/07 11:47:12;;;;;;;8.02;1.58;;;;;;;;;;5056009;28;20045;-67
2022/10/07 11:49:44;;;;;;;7.07;1.90;;;;;;;;;;5065179;28;20049;-68
2022/10/07 11:52:17;;;;;;;4.70;1.90;;;;;;;;;;5056485;28;20258;-69
2022/10/07 11:54:52;;;;;;;7.25;2.55;;;;;;;;;;5051597;28;20045;-68
2022/10/07 11:57:20;;;;;;;3.75;1.20;;;;;;;;;;5055464;28;20048;-70
2022/10/07 11:59:50;;;;;;;5.15;1.40;;;;;;;;;;5055305;28;20037;-68
2022/10/07 12:02:29;;;;;;;10.75;2.28;;;;;;;;;;5054727;28;20110;-74
2022/10/07 12:04:59;;;;;;;5.28;1.20;;;;;;;;;;5069539;28;20028;-69
2022/10/07 12:07:35;;;;;;;3.38;1.70;;;;;;;;;;5057963;28;20598;-68
2022/10/07 12:10:01;;;;;;;7.88;2.00;;;;;;;;;;5054324;28;20431;-67
2022/10/07 12:12:43;;;;;;;7.25;2.17;;;;;;;;;;5071648;28;20056;-69
2022/10/07 12:15:39;;;;;;;4.43;1.58;;;;;;;;;;5068384;28;20033;-66
2022/10/07 12:18:05;;;;;;;4.53;1.90;;;;;;;;;;5044415;28;20389;-65
2022/10/07 12:20:36;;;;;;;5.13;1.73;;;;;;;;;;5056839;28;20048;-67
2022/10/07 12:23:27;;;;;;;10.35;2.13;;;;;;;;;;5070413;28;20498;-67
2022/10/07 12:26:00;;;;;;;6.40;1.55;;;;;;;;;;5071674;28;20064;-66
2022/10/07 12:28:28;;;;;;;7.70;1.50;;;;;;;;;;5073414;28;20052;-67
2022/10/07 12:31:01;;;;;;;8.23;3.08;;;;;;;;;;5058235;28;20127;-66
2022/10/07 12:33:54;;;;;;;7.88;1.75;;;;;;;;;;5073087;28;20056;-66
2022/10/07 12:36:20;;;;;;;7.43;2.95;;;;;;;;;;5072446;28;20209;-66
2022/10/07 12:38:52;;;;;;;8.50;2.30;;;;;;;;;;5058211;28;20084;-66
2022/10/07 12:41:23;;;;;;;7.07;1.60;;;;;;;;;;5052050;28;20049;-67
2022/10/07 12:43:52;;;;;;;8.00;2.00;;;;;;;;;;5054728;28;20029;-66
2022/10/07 12:46:20;;;;;;;6.95;2.40;;;;;;;;;;5047890;28;20076;-66
2022/10/07 12:49:01;;;;;;;8.23;1.77;;;;;;;;;;5055320;28;20632;-66
2022/10/07 12:51:37;;;;;;;8.40;1.58;;;;;;;;;;5055428;28;20072;-68
2022/10/07 12:54:05;;;;;;;5.72;1.45;;;;;;;;;;5062445;28;20037;-70
2022/10/07 12:56:31;;;;;;;4.95;2.22;;;;;;;;;;5055679;28;20554;-66
2022/10/07 13:02:06;;;;;;;4.20;1.73;;;;;;;;;;5053081;28;20053;-66
2022/10/07 13:04:51;;;;;;;5.93;1.08;;;;;;;;;;5069283;28;20041;-67
2022/10/07 13:07:34;;;;;;;9.57;1.75;;;;;;;;;;5056932;28;20048;-67
2022/10/07 13:10:10;;;;;;;7.47;2.03;;;;;;;;;;5056207;28;20044;-66
2022/10/07 13:13:03;;;;;;;4.22;1.30;;;;;;;;;;5070488;28;20070;-66
2022/10/07 13:15:30;;;;;;;4.35;1.88;;;;;;;;;;5053149;28;20128;-66
2022/10/07 13:18:02;;;;;;;7.53;2.20;;;;;;;;;;5053885;28;20044;-68
2022/10/07 13:20:28;;;;;;;4.88;1.48;;;;;;;;;;5063363;28;20041;-67
2022/10/07 13:22:55;;;;;;;10.13;2.83;;;;;;;;;;5057485;28;20089;-67
2022/10/07 13:25:21;;;;;;;8.48;2.10;;;;;;;;;;5058715;28;20132;-67
2022/10/07 13:27:53;;;;;;;3.47;1.70;;;;;;;;;;5058918;28;20128;-67
2022/10/07 13:30:33;;;;;;;4.65;1.05;;;;;;;;;;5073528;28;20045;-67
2022/10/07 13:33:15;;;;;;;5.72;2.20;;;;;;;;;;5067940;28;20049;-67
2022/10/07 13:35:42;;;;;;;2.63;1.40;;;;;;;;;;5063532;28;20603;-67
2022/10/07 13:38:21;;;;;;;2.70;1.35;;;;;;;;;;5070223;28;20523;-67
2022/10/07 13:41:03;;;;;;;7.53;1.65;;;;;;;;;;5056215;28;20049;-67
2022/10/07 13:43:30;;;;;;;3.33;1.48;;;;;;;;;;5057660;28;20122;-67
2022/10/07 13:45:57;;;;;;;6.18;1.33;;;;;;;;;;5057328;28;20044;-67
2022/10/07 13:48:25;;;;;;;2.67;1.25;;;;;;;;;;5067975;28;22509;-67
2022/10/07 13:50:53;;;;;;;7.10;1.92;;;;;;;;;;5054472;28;20428;-67
2022/10/07 13:53:21;;;;;;;7.30;1.20;;;;;;;;;;5071707;28;20128;-67
2022/10/07 13:55:48;;;;;;;7.20;1.85;;;;;;;;;;5068380;28;20041;-66
2022/10/07 13:58:15;;;;;;;3.60;1.10;;;;;;;;;;5054630;28;20574;-66
2022/10/07 14:00:44;;;;;;;8.70;1.90;;;;;;;;;;5071832;28;20033;-68
2022/10/07 14:03:14;;;;;;;3.67;1.50;;;;;;;;;;5058227;28;20056;-69
2022/10/07 14:05:48;;;;;;;9.75;1.23;;;;;;;;;;5053593;28;20041;-66
2022/10/07 14:08:18;;;;;;;4.28;1.13;;;;;;;;;;5071306;28;20045;-67
2022/10/07 14:10:58;;;;;;;6.13;1.48;;;;;;;;;;5066585;28;20147;-67
2022/10/07 14:13:26;;;;;;;7.57;1.65;;;;;;;;;;5057054;28;20037;-67
2022/10/07 14:15:54;;;;;;;5.25;1.92;;;;;;;;;;5056366;28;20050;-67
2022/10/07 14:18:20;;;;;;;4.28;1.58;;;;;;;;;;5056372;28;20040;-67
2022/10/07 14:20:50;;;;;;;6.60;2.70;;;;;;;;;;5075984;28;20156;-67
2022/10/07 14:23:29;;;;;;;15.98;2.95;;;;;;;;;;5057113;28;22251;-67
2022/10/07 14:25:57;;;;;;;7.32;1.33;;;;;;;;;;5076401;28;20134;-66
2022/10/07 14:28:24;;;;;;;5.15;1.50;;;;;;;;;;5074334;28;20173;-67
2022/10/07 14:37:02;;;;;;;4.53;1.23;;;;;;;;;;5056424;28;20045;-68
2022/10/07 14:39:33;;;;;;;6.30;1.90;;;;;;;;;;5058293;28;20041;-68
2022/10/07 14:42:00;;;;;;;5.45;1.15;;;;;;;;;;5058586;28;20045;-68
2022/10/07 14:44:27;;;;;;;4.95;1.52;;;;;;;;;;5058227;28;20044;-68
2022/10/07 14:47:11;;;;;;;4.10;1.40;;;;;;;;;;5059872;28;20073;-67
2022/10/07 14:49:37;;;;;;;7.07;1.80;;;;;;;;;;5062853;28;20380;-68
2022/10/07 14:52:05;;;;;;;5.13;1.38;;;;;;;;;;5060073;28;20063;-68
2022/10/07 14:54:31;;;;;;;4.18;1.50;;;;;;;;;;5073760;28;20056;-68
2022/10/07 14:56:58;;;;;;;3.70;1.60;;;;;;;;;;5056419;28;20040;-71
2022/10/07 14:59:24;;;;;;;3.45;1.45;;;;;;;;;;5057510;28;20119;-68
2022/10/07 15:01:50;;;;;;;5.47;1.77;;;;;;;;;;5060203;28;20073;-67
2022/10/07 15:04:16;;;;;;;5.38;3.33;;;;;;;;;;5074445;28;20098;-68
2022/10/07 15:06:42;;;;;;;10.25;2.38;;;;;;;;;;5073855;28;20079;-68
2022/10/07 15:09:11;;;;;;;6.88;2.35;;;;;;;;;;5074663;28;20032;-68
2022/10/07 15:11:37;;;;;;;5.53;1.13;;;;;;;;;;5058840;28;20659;-68